sensor_id;sensor_type;location;lat;lon;timestamp;temperature;humidity
9103;DHT22;4587;51.434;6.788;2022-09-24T00:00:44;15.10;99.90
9103;DHT22;4587;51.434;6.788;2022-09-24T00:03:10;15.10;99.90
9103;DHT22;4587;51.434;6.788;2022-09-24T00:05:37;15.20;99.90
9103;DHT22;4587;51.434;6.788;2022-09-24T00:08:07;15.20;99.90
9103;DHT22;4587;51.434;6.788;2022-09-24T00:10:42;15.20;99.90
9103;DHT22;4587;51.434;6.788;2022-09-24T00:13:11;15.20;99.90
9103;DHT22;4587;51.434;6.788;2022-09-24T00:15:38;15.10;99.90
9103;DHT22;4587;51.434;6.788;2022-09-24T00:18:05;15.10;99.90
9103;DHT22;4587;51.434;6.788;2022-09-24T00:20:33;15.00;99.90
9103;DHT22;4587;51.434;6.788;2022-09-24T00:23:00;14.90;99.90
9103;DHT22;4587;51.434;6.788;2022-09-24T00:25:25;15.00;99.90
9103;DHT22;4587;51.434;6.788;2022-09-24T00:28:11;14.90;99.90
9103;DHT22;4587;51.434;6.788;2022-09-24T00:30:38;14.90;99.90
9103;DHT22;4587;51.434;6.788;2022-09-24T00:33:04;14.80;99.90
9103;DHT22;4587;51.434;6.788;2022-09-24T00:35:34;14.80;99.90
9103;DHT22;4587;51.434;6.788;2022-09-24T00:38:00;14.90;99.90
9103;DHT22;4587;51.434;6.788;2022-09-24T00:40:29;14.80;99.90
9103;DHT22;4587;51.434;6.788;2022-09-24T00:42:55;14.80;99.90
9103;DHT22;4587;51.434;6.788;2022-09-24T00:45:22;14.80;99.90
9103;DHT22;4587;51.434;6.788;2022-09-24T00:47:48;14.90;99.90
9103;DHT22;4587;51.434;6.788;2022-09-24T00:50:33;14.90;99.90
9103;DHT22;4587;51.434;6.788;2022-09-24T00:53:03;14.80;99.90
9103;DHT22;4587;51.434;6.788;2022-09-24T00:55:30;14.80;99.90
9103;DHT22;4587;51.434;6.788;2022-09-24T00:58:00;14.80;99.90
9103;DHT22;4587;51.434;6.788;2022-09-24T01:00:28;14.80;99.90
9103;DHT22;4587;51.434;6.788;2022-09-24T01:03:05;14.80;99.90
9103;DHT22;4587;51.434;6.788;2022-09-24T01:05:31;14.80;99.90
9103;DHT22;4587;51.434;6.788;2022-09-24T01:07:57;14.80;99.90
9103;DHT22;4587;51.434;6.788;2022-09-24T01:18:46;14.80;99.90
9103;DHT22;4587;51.434;6.788;2022-09-24T01:24:07;14.80;99.90
9103;DHT22;4587;51.434;6.788;2022-09-24T01:27:03;14.80;99.90
9103;DHT22;4587;51.434;6.788;2022-09-24T01:32:29;14.70;99.90
9103;DHT22;4587;51.434;6.788;2022-09-24T01:35:02;14.70;99.90
9103;DHT22;4587;51.434;6.788;2022-09-24T01:37:32;14.70;99.90
9103;DHT22;4587;51.434;6.788;2022-09-24T01:39:59;14.70;99.90
9103;DHT22;4587;51.434;6.788;2022-09-24T01:42:28;14.70;99.90
9103;DHT22;4587;51.434;6.788;2022-09-24T01:44:56;14.70;99.90
9103;DHT22;4587;51.434;6.788;2022-09-24T01:47:29;14.70;99.90
9103;DHT22;4587;51.434;6.788;2022-09-24T01:49:55;14.70;99.90
9103;DHT22;4587;51.434;6.788;2022-09-24T01:52:24;14.70;99.90
9103;DHT22;4587;51.434;6.788;2022-09-24T01:54:54;14.70;99.90
9103;DHT22;4587;51.434;6.788;2022-09-24T02:02:37;14.70;99.90
9103;DHT22;4587;51.434;6.788;2022-09-24T02:08:06;14.70;99.90
9103;DHT22;4587;51.434;6.788;2022-09-24T02:10:37;14.70;99.90
9103;DHT22;4587;51.434;6.788;2022-09-24T02:13:09;14.70;99.90
9103;DHT22;4587;51.434;6.788;2022-09-24T02:15:39;14.60;99.90
9103;DHT22;4587;51.434;6.788;2022-09-24T02:18:08;14.60;99.90
9103;DHT22;4587;51.434;6.788;2022-09-24T02:20:38;14.60;99.90
9103;DHT22;4587;51.434;6.788;2022-09-24T02:23:07;14.60;99.90
9103;DHT22;4587;51.434;6.788;2022-09-24T02:25:42;14.60;99.90
9103;DHT22;4587;51.434;6.788;2022-09-24T02:28:13;14.50;99.90
9103;DHT22;4587;51.434;6.788;2022-09-24T02:30:43;14.50;99.90
9103;DHT22;4587;51.434;6.788;2022-09-24T02:33:12;14.50;99.90
9103;DHT22;4587;51.434;6.788;2022-09-24T02:35:56;14.50;99.90
9103;DHT22;4587;51.434;6.788;2022-09-24T02:38:23;14.50;99.90
9103;DHT22;4587;51.434;6.788;2022-09-24T02:40:48;14.50;99.90
9103;DHT22;4587;51.434;6.788;2022-09-24T02:43:14;14.50;99.90
9103;DHT22;4587;51.434;6.788;2022-09-24T02:45:40;14.60;99.90
9103;DHT22;4587;51.434;6.788;2022-09-24T02:48:05;14.60;99.90
9103;DHT22;4587;51.434;6.788;2022-09-24T02:50:32;14.60;99.90
9103;DHT22;4587;51.434;6.788;2022-09-24T02:52:57;14.60;99.90
9103;DHT22;4587;51.434;6.788;2022-09-24T02:55:23;14.50;99.90
9103;DHT22;4587;51.434;6.788;2022-09-24T02:57:48;14.60;99.90
9103;DHT22;4587;51.434;6.788;2022-09-24T03:00:14;14.60;99.90
9103;DHT22;4587;51.434;6.788;2022-09-24T03:02:40;14.50;99.90
9103;DHT22;4587;51.434;6.788;2022-09-24T03:05:06;14.60;99.90
9103;DHT22;4587;51.434;6.788;2022-09-24T03:07:31;14.60;99.90
9103;DHT22;4587;51.434;6.788;2022-09-24T03:09:57;14.50;99.90
9103;DHT22;4587;51.434;6.788;2022-09-24T03:12:24;14.40;99.90
9103;DHT22;4587;51.434;6.788;2022-09-24T03:14:49;14.50;99.90
9103;DHT22;4587;51.434;6.788;2022-09-24T03:17:15;14.40;99.90
9103;DHT22;4587;51.434;6.788;2022-09-24T03:19:41;14.40;99.90
9103;DHT22;4587;51.434;6.788;2022-09-24T03:22:06;14.40;99.90
9103;DHT22;4587;51.434;6.788;2022-09-24T03:24:32;14.30;99.90
9103;DHT22;4587;51.434;6.788;2022-09-24T03:26:57;14.30;99.90
9103;DHT22;4587;51.434;6.788;2022-09-24T03:29:23;14.30;99.90
9103;DHT22;4587;51.434;6.788;2022-09-24T03:32:08;14.30;99.90
9103;DHT22;4587;51.434;6.788;2022-09-24T03:34:34;14.30;99.90
9103;DHT22;4587;51.434;6.788;2022-09-24T03:36:59;14.20;99.90
9103;DHT22;4587;51.434;6.788;2022-09-24T03:39:25;14.20;99.90
9103;DHT22;4587;51.434;6.788;2022-09-24T03:41:50;14.20;99.90
9103;DHT22;4587;51.434;6.788;2022-09-24T03:44:16;14.20;99.90
9103;DHT22;4587;51.434;6.788;2022-09-24T03:46:41;14.10;99.90
9103;DHT22;4587;51.434;6.788;2022-09-24T03:49:08;14.10;99.90
9103;DHT22;4587;51.434;6.788;2022-09-24T03:51:33;14.10;99.90
9103;DHT22;4587;51.434;6.788;2022-09-24T03:53:59;14.10;99.90
9103;DHT22;4587;51.434;6.788;2022-09-24T03:56:24;14.10;99.90
9103;DHT22;4587;51.434;6.788;2022-09-24T03:58:50;14.10;99.90
9103;DHT22;4587;51.434;6.788;2022-09-24T04:01:16;14.10;99.90
9103;DHT22;4587;51.434;6.788;2022-09-24T04:03:45;14.10;99.90
9103;DHT22;4587;51.434;6.788;2022-09-24T04:06:11;14.00;99.90
9103;DHT22;4587;51.434;6.788;2022-09-24T04:08:37;14.00;99.90
9103;DHT22;4587;51.434;6.788;2022-09-24T04:11:03;14.10;99.90
9103;DHT22;4587;51.434;6.788;2022-09-24T04:13:28;14.00;99.90
9103;DHT22;4587;51.434;6.788;2022-09-24T04:15:54;14.10;99.90
9103;DHT22;4587;51.434;6.788;2022-09-24T04:18:20;14.10;99.90
9103;DHT22;4587;51.434;6.788;2022-09-24T04:20:46;14.10;99.90
9103;DHT22;4587;51.434;6.788;2022-09-24T04:23:12;14.10;99.90
9103;DHT22;4587;51.434;6.788;2022-09-24T04:25:38;14.10;99.90
9103;DHT22;4587;51.434;6.788;2022-09-24T04:28:08;14.10;99.90
9103;DHT22;4587;51.434;6.788;2022-09-24T04:30:34;14.10;99.90
9103;DHT22;4587;51.434;6.788;2022-09-24T04:33:01;14.10;99.90
9103;DHT22;4587;51.434;6.788;2022-09-24T04:35:29;14.10;99.90
9103;DHT22;4587;51.434;6.788;2022-09-24T04:37:55;14.00;99.90
9103;DHT22;4587;51.434;6.788;2022-09-24T04:40:21;14.00;99.90
9103;DHT22;4587;51.434;6.788;2022-09-24T04:42:47;13.90;99.90
9103;DHT22;4587;51.434;6.788;2022-09-24T04:45:14;14.00;99.90
9103;DHT22;4587;51.434;6.788;2022-09-24T04:47:45;14.00;99.90
9103;DHT22;4587;51.434;6.788;2022-09-24T04:50:15;14.00;99.90
9103;DHT22;4587;51.434;6.788;2022-09-24T04:52:40;14.10;99.90
9103;DHT22;4587;51.434;6.788;2022-09-24T04:55:06;14.10;99.90
9103;DHT22;4587;51.434;6.788;2022-09-24T04:57:32;14.10;99.90
9103;DHT22;4587;51.434;6.788;2022-09-24T04:59:59;14.10;99.90
9103;DHT22;4587;51.434;6.788;2022-09-24T05:02:25;14.10;99.90
9103;DHT22;4587;51.434;6.788;2022-09-24T05:04:50;14.00;99.90
9103;DHT22;4587;51.434;6.788;2022-09-24T05:07:16;14.10;99.90
9103;DHT22;4587;51.434;6.788;2022-09-24T05:09:41;14.10;99.90
9103;DHT22;4587;51.434;6.788;2022-09-24T05:12:07;14.00;99.90
9103;DHT22;4587;51.434;6.788;2022-09-24T05:14:33;14.00;99.90
9103;DHT22;4587;51.434;6.788;2022-09-24T05:16:58;14.00;99.90
9103;DHT22;4587;51.434;6.788;2022-09-24T05:19:24;14.10;99.90
9103;DHT22;4587;51.434;6.788;2022-09-24T05:21:49;14.10;99.90
9103;DHT22;4587;51.434;6.788;2022-09-24T05:24:15;13.90;99.90
9103;DHT22;4587;51.434;6.788;2022-09-24T05:26:40;13.90;99.90
9103;DHT22;4587;51.434;6.788;2022-09-24T05:29:25;13.90;99.90
9103;DHT22;4587;51.434;6.788;2022-09-24T05:31:51;13.90;99.90
9103;DHT22;4587;51.434;6.788;2022-09-24T05:34:16;13.90;99.90
9103;DHT22;4587;51.434;6.788;2022-09-24T05:36:43;13.90;99.90
9103;DHT22;4587;51.434;6.788;2022-09-24T05:39:09;13.90;99.90
9103;DHT22;4587;51.434;6.788;2022-09-24T05:41:36;13.80;99.90
9103;DHT22;4587;51.434;6.788;2022-09-24T05:44:02;13.90;99.90
9103;DHT22;4587;51.434;6.788;2022-09-24T05:46:28;13.90;99.90
9103;DHT22;4587;51.434;6.788;2022-09-24T05:48:53;13.90;99.90
9103;DHT22;4587;51.434;6.788;2022-09-24T05:51:20;13.90;99.90
9103;DHT22;4587;51.434;6.788;2022-09-24T05:53:45;13.90;99.90
9103;DHT22;4587;51.434;6.788;2022-09-24T05:56:11;13.90;99.90
9103;DHT22;4587;51.434;6.788;2022-09-24T05:58:36;13.90;99.90
9103;DHT22;4587;51.434;6.788;2022-09-24T06:01:02;13.90;99.90
9103;DHT22;4587;51.434;6.788;2022-09-24T06:03:28;13.90;99.90
9103;DHT22;4587;51.434;6.788;2022-09-24T06:05:56;13.90;99.90
9103;DHT22;4587;51.434;6.788;2022-09-24T06:08:27;13.90;99.90
9103;DHT22;4587;51.434;6.788;2022-09-24T06:10:58;13.90;99.90
9103;DHT22;4587;51.434;6.788;2022-09-24T06:13:23;14.00;99.90
9103;DHT22;4587;51.434;6.788;2022-09-24T06:15:49;14.00;99.90
9103;DHT22;4587;51.434;6.788;2022-09-24T06:18:14;14.00;99.90
9103;DHT22;4587;51.434;6.788;2022-09-24T06:20:40;14.00;99.90
9103;DHT22;4587;51.434;6.788;2022-09-24T06:23:06;14.00;99.90
9103;DHT22;4587;51.434;6.788;2022-09-24T06:25:32;14.00;99.90
9103;DHT22;4587;51.434;6.788;2022-09-24T06:27:59;14.00;99.90
9103;DHT22;4587;51.434;6.788;2022-09-24T06:30:37;14.10;99.90
9103;DHT22;4587;51.434;6.788;2022-09-24T06:33:08;14.20;99.90
9103;DHT22;4587;51.434;6.788;2022-09-24T06:35:38;14.20;99.90
9103;DHT22;4587;51.434;6.788;2022-09-24T06:38:05;14.20;99.90
9103;DHT22;4587;51.434;6.788;2022-09-24T06:40:32;14.30;99.90
9103;DHT22;4587;51.434;6.788;2022-09-24T06:42:58;14.40;99.90
9103;DHT22;4587;51.434;6.788;2022-09-24T06:45:23;14.40;99.90
9103;DHT22;4587;51.434;6.788;2022-09-24T06:47:59;14.50;99.90
9103;DHT22;4587;51.434;6.788;2022-09-24T06:50:27;14.50;99.90
9103;DHT22;4587;51.434;6.788;2022-09-24T06:52:54;14.60;99.90
9103;DHT22;4587;51.434;6.788;2022-09-24T06:55:20;14.70;99.90
9103;DHT22;4587;51.434;6.788;2022-09-24T06:57:45;14.70;99.90
9103;DHT22;4587;51.434;6.788;2022-09-24T07:00:12;14.70;99.90
9103;DHT22;4587;51.434;6.788;2022-09-24T07:02:38;14.80;99.90
9103;DHT22;4587;51.434;6.788;2022-09-24T07:05:05;14.80;99.90
9103;DHT22;4587;51.434;6.788;2022-09-24T07:07:31;14.70;99.90
9103;DHT22;4587;51.434;6.788;2022-09-24T07:10:25;14.70;99.90
9103;DHT22;4587;51.434;6.788;2022-09-24T07:12:52;14.70;99.90
9103;DHT22;4587;51.434;6.788;2022-09-24T07:15:18;14.70;99.90
9103;DHT22;4587;51.434;6.788;2022-09-24T07:17:44;14.60;99.90
9103;DHT22;4587;51.434;6.788;2022-09-24T07:20:09;14.60;99.90
9103;DHT22;4587;51.434;6.788;2022-09-24T07:22:39;14.70;99.90
9103;DHT22;4587;51.434;6.788;2022-09-24T07:25:09;14.70;99.90
9103;DHT22;4587;51.434;6.788;2022-09-24T07:27:36;14.80;99.90
9103;DHT22;4587;51.434;6.788;2022-09-24T07:30:06;14.90;99.90
9103;DHT22;4587;51.434;6.788;2022-09-24T07:32:32;14.90;99.90
9103;DHT22;4587;51.434;6.788;2022-09-24T07:34:58;14.90;99.90
9103;DHT22;4587;51.434;6.788;2022-09-24T07:37:23;15.00;99.90
9103;DHT22;4587;51.434;6.788;2022-09-24T07:39:49;15.10;99.90
9103;DHT22;4587;51.434;6.788;2022-09-24T07:42:15;15.00;99.90
9103;DHT22;4587;51.434;6.788;2022-09-24T07:44:40;15.00;99.90
9103;DHT22;4587;51.434;6.788;2022-09-24T07:47:06;15.00;99.90
9103;DHT22;4587;51.434;6.788;2022-09-24T07:49:31;15.00;99.90
9103;DHT22;4587;51.434;6.788;2022-09-24T07:51:58;15.00;99.90
9103;DHT22;4587;51.434;6.788;2022-09-24T07:54:24;15.00;99.90
9103;DHT22;4587;51.434;6.788;2022-09-24T07:56:50;15.10;99.90
9103;DHT22;4587;51.434;6.788;2022-09-24T07:59:16;15.00;99.90
9103;DHT22;4587;51.434;6.788;2022-09-24T08:01:44;15.10;99.90
9103;DHT22;4587;51.434;6.788;2022-09-24T08:04:09;15.20;99.90
9103;DHT22;4587;51.434;6.788;2022-09-24T08:06:35;15.20;99.90
9103;DHT22;4587;51.434;6.788;2022-09-24T08:09:01;15.30;99.90
9103;DHT22;4587;51.434;6.788;2022-09-24T08:11:27;15.30;99.90
9103;DHT22;4587;51.434;6.788;2022-09-24T08:13:57;15.50;99.90
9103;DHT22;4587;51.434;6.788;2022-09-24T08:16:23;15.70;99.90
9103;DHT22;4587;51.434;6.788;2022-09-24T08:18:50;15.90;99.90
9103;DHT22;4587;51.434;6.788;2022-09-24T08:21:15;16.30;99.90
9103;DHT22;4587;51.434;6.788;2022-09-24T08:23:42;16.70;99.90
9103;DHT22;4587;51.434;6.788;2022-09-24T08:26:09;17.00;99.90
9103;DHT22;4587;51.434;6.788;2022-09-24T08:28:35;17.30;99.90
9103;DHT22;4587;51.434;6.788;2022-09-24T08:31:04;17.50;99.90
9103;DHT22;4587;51.434;6.788;2022-09-24T08:33:33;17.70;99.90
9103;DHT22;4587;51.434;6.788;2022-09-24T08:36:00;17.70;99.90
9103;DHT22;4587;51.434;6.788;2022-09-24T08:38:26;17.70;99.90
9103;DHT22;4587;51.434;6.788;2022-09-24T08:46:45;18.20;99.90
9103;DHT22;4587;51.434;6.788;2022-09-24T08:49:32;19.00;99.90
9103;DHT22;4587;51.434;6.788;2022-09-24T08:52:50;19.60;99.90
9103;DHT22;4587;51.434;6.788;2022-09-24T08:54:50;19.90;99.90
9103;DHT22;4587;51.434;6.788;2022-09-24T08:57:17;19.90;99.90
9103;DHT22;4587;51.434;6.788;2022-09-24T08:59:48;19.90;99.90
9103;DHT22;4587;51.434;6.788;2022-09-24T09:05:24;19.50;99.90
9103;DHT22;4587;51.434;6.788;2022-09-24T09:07:57;19.30;99.90
9103;DHT22;4587;51.434;6.788;2022-09-24T09:10:30;19.20;99.90
9103;DHT22;4587;51.434;6.788;2022-09-24T09:13:10;19.10;99.90
9103;DHT22;4587;51.434;6.788;2022-09-24T09:15:44;19.00;99.90
9103;DHT22;4587;51.434;6.788;2022-09-24T09:18:14;19.10;99.90
9103;DHT22;4587;51.434;6.788;2022-09-24T09:20:44;19.10;99.90
9103;DHT22;4587;51.434;6.788;2022-09-24T09:25:54;18.70;99.90
9103;DHT22;4587;51.434;6.788;2022-09-24T09:28:20;18.70;99.90
9103;DHT22;4587;51.434;6.788;2022-09-24T09:33:34;18.60;99.90
9103;DHT22;4587;51.434;6.788;2022-09-24T09:38:58;18.50;99.90
9103;DHT22;4587;51.434;6.788;2022-09-24T09:41:55;18.50;99.90
9103;DHT22;4587;51.434;6.788;2022-09-24T09:44:28;18.50;99.90
9103;DHT22;4587;51.434;6.788;2022-09-24T09:47:02;18.50;99.90
9103;DHT22;4587;51.434;6.788;2022-09-24T09:49:33;18.60;99.90
9103;DHT22;4587;51.434;6.788;2022-09-24T09:52:02;18.60;99.90
9103;DHT22;4587;51.434;6.788;2022-09-24T09:54:38;18.60;99.90
9103;DHT22;4587;51.434;6.788;2022-09-24T09:57:05;18.70;99.90
9103;DHT22;4587;51.434;6.788;2022-09-24T09:59:32;18.70;99.90
9103;DHT22;4587;51.434;6.788;2022-09-24T10:02:00;18.70;99.90
9103;DHT22;4587;51.434;6.788;2022-09-24T10:04:33;18.60;99.90
9103;DHT22;4587;51.434;6.788;2022-09-24T10:07:14;18.60;99.90
9103;DHT22;4587;51.434;6.788;2022-09-24T10:09:41;18.50;99.90
9103;DHT22;4587;51.434;6.788;2022-09-24T10:12:15;18.40;99.90
9103;DHT22;4587;51.434;6.788;2022-09-24T10:14:42;18.40;99.90
9103;DHT22;4587;51.434;6.788;2022-09-24T10:17:16;18.40;99.90
9103;DHT22;4587;51.434;6.788;2022-09-24T10:19:43;18.30;99.90
9103;DHT22;4587;51.434;6.788;2022-09-24T10:22:25;18.30;99.90
9103;DHT22;4587;51.434;6.788;2022-09-24T10:24:53;18.30;99.90
9103;DHT22;4587;51.434;6.788;2022-09-24T10:27:29;18.20;99.90
9103;DHT22;4587;51.434;6.788;2022-09-24T10:29:55;18.20;99.90
9103;DHT22;4587;51.434;6.788;2022-09-24T10:32:40;18.20;99.90
9103;DHT22;4587;51.434;6.788;2022-09-24T10:35:21;18.20;99.90
9103;DHT22;4587;51.434;6.788;2022-09-24T10:37:52;18.30;99.90
9103;DHT22;4587;51.434;6.788;2022-09-24T10:40:21;18.20;99.90
9103;DHT22;4587;51.434;6.788;2022-09-24T10:43:00;18.20;99.90
9103;DHT22;4587;51.434;6.788;2022-09-24T10:45:54;18.20;99.90
9103;DHT22;4587;51.434;6.788;2022-09-24T10:48:27;18.20;99.90
9103;DHT22;4587;51.434;6.788;2022-09-24T10:51:23;18.20;99.90
9103;DHT22;4587;51.434;6.788;2022-09-24T10:54:15;18.20;99.90
9103;DHT22;4587;51.434;6.788;2022-09-24T10:56:49;18.20;99.90
9103;DHT22;4587;51.434;6.788;2022-09-24T10:59:31;18.20;99.90
9103;DHT22;4587;51.434;6.788;2022-09-24T11:02:53;18.20;99.90
9103;DHT22;4587;51.434;6.788;2022-09-24T11:05:36;18.20;99.90
9103;DHT22;4587;51.434;6.788;2022-09-24T11:11:38;18.20;99.90
9103;DHT22;4587;51.434;6.788;2022-09-24T11:31:22;18.20;99.90
9103;DHT22;4587;51.434;6.788;2022-09-24T11:42:23;18.10;99.90
9103;DHT22;4587;51.434;6.788;2022-09-24T11:45:01;18.10;99.90
9103;DHT22;4587;51.434;6.788;2022-09-24T11:47:56;18.10;99.90
9103;DHT22;4587;51.434;6.788;2022-09-24T11:50:32;18.20;99.90
9103;DHT22;4587;51.434;6.788;2022-09-24T11:55:58;18.10;99.90
9103;DHT22;4587;51.434;6.788;2022-09-24T11:58:41;18.10;99.90
9103;DHT22;4587;51.434;6.788;2022-09-24T12:01:24;18.00;99.90
9103;DHT22;4587;51.434;6.788;2022-09-24T12:04:15;17.90;99.90
9103;DHT22;4587;51.434;6.788;2022-09-24T12:06:46;17.80;99.90
9103;DHT22;4587;51.434;6.788;2022-09-24T12:11:55;17.70;99.90
9103;DHT22;4587;51.434;6.788;2022-09-24T12:17:21;17.60;99.90
9103;DHT22;4587;51.434;6.788;2022-09-24T12:19:56;17.60;99.90
9103;DHT22;4587;51.434;6.788;2022-09-24T12:22:24;17.40;99.90
9103;DHT22;4587;51.434;6.788;2022-09-24T12:24:53;17.40;99.90
9103;DHT22;4587;51.434;6.788;2022-09-24T12:27:37;17.40;99.90
9103;DHT22;4587;51.434;6.788;2022-09-24T12:30:27;17.40;99.90
9103;DHT22;4587;51.434;6.788;2022-09-24T12:33:30;17.30;99.90
9103;DHT22;4587;51.434;6.788;2022-09-24T12:36:04;17.30;99.90
9103;DHT22;4587;51.434;6.788;2022-09-24T12:38:39;17.30;99.90
9103;DHT22;4587;51.434;6.788;2022-09-24T12:43:46;17.30;99.90
9103;DHT22;4587;51.434;6.788;2022-09-24T12:46:18;17.30;99.90
9103;DHT22;4587;51.434;6.788;2022-09-24T12:48:46;17.30;99.90
9103;DHT22;4587;51.434;6.788;2022-09-24T12:51:13;17.20;99.90
9103;DHT22;4587;51.434;6.788;2022-09-24T12:53:42;17.20;99.90
9103;DHT22;4587;51.434;6.788;2022-09-24T12:56:26;17.20;99.90
9103;DHT22;4587;51.434;6.788;2022-09-24T12:58:54;17.20;99.90
9103;DHT22;4587;51.434;6.788;2022-09-24T13:06:31;17.20;99.90
9103;DHT22;4587;51.434;6.788;2022-09-24T13:08:57;17.30;99.90
9103;DHT22;4587;51.434;6.788;2022-09-24T13:11:29;17.30;99.90
9103;DHT22;4587;51.434;6.788;2022-09-24T13:16:29;17.30;99.90
9103;DHT22;4587;51.434;6.788;2022-09-24T13:18:58;17.30;99.90
9103;DHT22;4587;51.434;6.788;2022-09-24T13:21:26;17.40;99.90
9103;DHT22;4587;51.434;6.788;2022-09-24T13:23:53;17.30;99.90
9103;DHT22;4587;51.434;6.788;2022-09-24T13:26:32;17.40;99.90
9103;DHT22;4587;51.434;6.788;2022-09-24T13:29:05;17.40;99.90
9103;DHT22;4587;51.434;6.788;2022-09-24T13:31:59;17.40;99.90
9103;DHT22;4587;51.434;6.788;2022-09-24T13:34:28;17.50;99.90
9103;DHT22;4587;51.434;6.788;2022-09-24T13:37:18;17.60;99.90
9103;DHT22;4587;51.434;6.788;2022-09-24T13:39:50;17.60;99.90
9103;DHT22;4587;51.434;6.788;2022-09-24T13:45:00;17.70;99.90
9103;DHT22;4587;51.434;6.788;2022-09-24T13:47:37;17.80;99.90
9103;DHT22;4587;51.434;6.788;2022-09-24T13:52:47;17.80;99.90
9103;DHT22;4587;51.434;6.788;2022-09-24T13:55:36;17.80;99.90
9103;DHT22;4587;51.434;6.788;2022-09-24T13:58:03;17.90;99.90
9103;DHT22;4587;51.434;6.788;2022-09-24T14:00:30;17.80;99.90
9103;DHT22;4587;51.434;6.788;2022-09-24T14:03:30;17.80;99.90
9103;DHT22;4587;51.434;6.788;2022-09-24T14:05:58;17.80;99.90
9103;DHT22;4587;51.434;6.788;2022-09-24T14:08:25;17.80;99.90
9103;DHT22;4587;51.434;6.788;2022-09-24T14:14:09;17.80;99.90
9103;DHT22;4587;51.434;6.788;2022-09-24T14:16:35;17.70;99.90
9103;DHT22;4587;51.434;6.788;2022-09-24T14:19:02;17.70;99.90
9103;DHT22;4587;51.434;6.788;2022-09-24T14:21:33;17.70;99.90
9103;DHT22;4587;51.434;6.788;2022-09-24T14:24:04;17.70;99.90
9103;DHT22;4587;51.434;6.788;2022-09-24T14:26:47;17.70;99.90
9103;DHT22;4587;51.434;6.788;2022-09-24T14:29:20;17.60;99.90
9103;DHT22;4587;51.434;6.788;2022-09-24T14:31:51;17.60;99.90
9103;DHT22;4587;51.434;6.788;2022-09-24T14:34:35;17.60;99.90
9103;DHT22;4587;51.434;6.788;2022-09-24T14:37:18;17.50;99.90
9103;DHT22;4587;51.434;6.788;2022-09-24T14:39:46;17.50;99.90
9103;DHT22;4587;51.434;6.788;2022-09-24T14:42:22;17.50;99.90
9103;DHT22;4587;51.434;6.788;2022-09-24T14:44:49;17.50;99.90
9103;DHT22;4587;51.434;6.788;2022-09-24T14:47:30;17.40;99.90
9103;DHT22;4587;51.434;6.788;2022-09-24T14:49:56;17.40;99.90
9103;DHT22;4587;51.434;6.788;2022-09-24T14:55:18;17.30;99.90
9103;DHT22;4587;51.434;6.788;2022-09-24T14:57:46;17.30;99.90
9103;DHT22;4587;51.434;6.788;2022-09-24T15:03:01;17.20;99.90
9103;DHT22;4587;51.434;6.788;2022-09-24T15:05:28;17.20;99.90
9103;DHT22;4587;51.434;6.788;2022-09-24T15:10:56;17.20;99.90
9103;DHT22;4587;51.434;6.788;2022-09-24T15:13:25;17.20;99.90
9103;DHT22;4587;51.434;6.788;2022-09-24T15:18:38;17.10;99.90
9103;DHT22;4587;51.434;6.788;2022-09-24T15:21:04;17.10;99.90
9103;DHT22;4587;51.434;6.788;2022-09-24T15:23:33;17.00;99.90
9103;DHT22;4587;51.434;6.788;2022-09-24T15:25:58;17.00;99.90
9103;DHT22;4587;51.434;6.788;2022-09-24T15:28:24;16.90;99.90
9103;DHT22;4587;51.434;6.788;2022-09-24T15:30:53;16.90;99.90
9103;DHT22;4587;51.434;6.788;2022-09-24T15:33:19;16.90;99.90
9103;DHT22;4587;51.434;6.788;2022-09-24T15:35:44;16.90;99.90
9103;DHT22;4587;51.434;6.788;2022-09-24T15:38:19;16.90;99.90
9103;DHT22;4587;51.434;6.788;2022-09-24T15:40:45;16.90;99.90
9103;DHT22;4587;51.434;6.788;2022-09-24T15:43:18;16.80;99.90
9103;DHT22;4587;51.434;6.788;2022-09-24T15:45:44;16.80;99.90
9103;DHT22;4587;51.434;6.788;2022-09-24T15:48:10;16.80;99.90
9103;DHT22;4587;51.434;6.788;2022-09-24T15:50:38;16.80;99.90
9103;DHT22;4587;51.434;6.788;2022-09-24T15:53:04;16.80;99.90
9103;DHT22;4587;51.434;6.788;2022-09-24T15:55:30;16.70;99.90
9103;DHT22;4587;51.434;6.788;2022-09-24T15:57:58;16.70;99.90
9103;DHT22;4587;51.434;6.788;2022-09-24T16:00:25;16.70;99.90
9103;DHT22;4587;51.434;6.788;2022-09-24T16:02:53;16.70;99.90
9103;DHT22;4587;51.434;6.788;2022-09-24T16:05:20;16.60;99.90
9103;DHT22;4587;51.434;6.788;2022-09-24T16:07:46;16.60;99.90
9103;DHT22;4587;51.434;6.788;2022-09-24T16:10:12;16.50;99.90
9103;DHT22;4587;51.434;6.788;2022-09-24T16:12:41;16.50;99.90
9103;DHT22;4587;51.434;6.788;2022-09-24T16:15:11;16.40;99.90
9103;DHT22;4587;51.434;6.788;2022-09-24T16:17:38;16.40;99.90
9103;DHT22;4587;51.434;6.788;2022-09-24T16:20:04;16.30;99.90
9103;DHT22;4587;51.434;6.788;2022-09-24T16:22:30;16.30;99.90
9103;DHT22;4587;51.434;6.788;2022-09-24T16:24:56;16.20;99.90
9103;DHT22;4587;51.434;6.788;2022-09-24T16:27:21;16.30;99.90
9103;DHT22;4587;51.434;6.788;2022-09-24T16:29:47;16.20;99.90
9103;DHT22;4587;51.434;6.788;2022-09-24T16:32:13;16.20;99.90
9103;DHT22;4587;51.434;6.788;2022-09-24T16:34:39;16.20;99.90
9103;DHT22;4587;51.434;6.788;2022-09-24T16:37:06;16.10;99.90
9103;DHT22;4587;51.434;6.788;2022-09-24T16:39:32;16.00;99.90
9103;DHT22;4587;51.434;6.788;2022-09-24T16:41:57;16.00;99.90
9103;DHT22;4587;51.434;6.788;2022-09-24T16:44:23;15.90;99.90
9103;DHT22;4587;51.434;6.788;2022-09-24T16:46:48;15.90;99.90
9103;DHT22;4587;51.434;6.788;2022-09-24T16:49:14;15.90;99.90
9103;DHT22;4587;51.434;6.788;2022-09-24T16:51:39;15.80;99.90
9103;DHT22;4587;51.434;6.788;2022-09-24T16:54:05;15.80;99.90
9103;DHT22;4587;51.434;6.788;2022-09-24T16:56:31;15.80;99.90
9103;DHT22;4587;51.434;6.788;2022-09-24T16:58:57;15.80;99.90
9103;DHT22;4587;51.434;6.788;2022-09-24T17:01:22;15.80;99.90
9103;DHT22;4587;51.434;6.788;2022-09-24T17:03:56;15.80;99.90
9103;DHT22;4587;51.434;6.788;2022-09-24T17:06:24;15.80;99.90
9103;DHT22;4587;51.434;6.788;2022-09-24T17:08:50;15.70;99.90
9103;DHT22;4587;51.434;6.788;2022-09-24T17:11:34;15.80;99.90
9103;DHT22;4587;51.434;6.788;2022-09-24T17:14:00;15.70;99.90
9103;DHT22;4587;51.434;6.788;2022-09-24T17:16:26;15.70;99.90
9103;DHT22;4587;51.434;6.788;2022-09-24T17:18:52;15.60;99.90
9103;DHT22;4587;51.434;6.788;2022-09-24T17:21:21;15.60;99.90
9103;DHT22;4587;51.434;6.788;2022-09-24T17:23:47;15.60;99.90
9103;DHT22;4587;51.434;6.788;2022-09-24T17:26:14;15.60;99.90
9103;DHT22;4587;51.434;6.788;2022-09-24T17:28:42;15.60;99.90
9103;DHT22;4587;51.434;6.788;2022-09-24T17:31:10;15.60;99.90
9103;DHT22;4587;51.434;6.788;2022-09-24T17:33:36;15.60;99.90
9103;DHT22;4587;51.434;6.788;2022-09-24T17:36:05;15.60;99.90
9103;DHT22;4587;51.434;6.788;2022-09-24T17:38:32;15.60;99.90
9103;DHT22;4587;51.434;6.788;2022-09-24T17:41:03;15.60;99.90
9103;DHT22;4587;51.434;6.788;2022-09-24T17:43:30;15.60;99.90
9103;DHT22;4587;51.434;6.788;2022-09-24T17:46:01;15.60;99.90
9103;DHT22;4587;51.434;6.788;2022-09-24T17:48:32;15.60;99.90
9103;DHT22;4587;51.434;6.788;2022-09-24T17:51:05;15.50;99.90
9103;DHT22;4587;51.434;6.788;2022-09-24T17:53:32;15.50;99.90
9103;DHT22;4587;51.434;6.788;2022-09-24T17:55:58;15.50;99.90
9103;DHT22;4587;51.434;6.788;2022-09-24T17:58:24;15.40;99.90
9103;DHT22;4587;51.434;6.788;2022-09-24T18:00:50;15.40;99.90
9103;DHT22;4587;51.434;6.788;2022-09-24T18:03:16;15.40;99.90
9103;DHT22;4587;51.434;6.788;2022-09-24T18:05:43;15.40;99.90